.
WxDataArchive / Data Records for 2010-06-10
2010-06-09 June 2010 2010-06-11

Data Records for Thursday, 10 June 2010

Time	Temp	Chill	HIndex	Humid	Dewpt	 Wind 	HiWind	WindDir	Rain 	Barom 
-----	----	-----	------	-----	-----	------	------	-------	-----	----- 
00:00	69.8	69.8	69.8	72	60.4	0	1	248	0.00	29.866 
00:05	69.6	69.6	69.6	73	60.6	0	1	248	0.00	29.866 
00:10	69.6	69.6	69.6	72	60.2	0	3	248	0.00	29.866 
00:15	69.8	69.8	69.8	72	60.4	0	1	248	0.00	29.872 
00:20	69.8	69.8	69.8	72	60.4	0	0	---	0.00	29.872 
00:25	69.6	69.6	69.6	73	60.6	0	0	---	0.00	29.872 
00:30	69.3	69.3	69.3	73	60.3	0	0	---	0.00	29.880 
00:35	68.9	68.9	68.9	74	60.3	0	0	---	0.00	29.880 
00:40	68.6	68.6	68.6	75	60.3	0	0	---	0.00	29.880 
00:45	68.3	68.3	68.3	75	60.1	0	0	---	0.00	29.882 
00:50	67.8	67.8	67.8	77	60.3	0	0	---	0.00	29.882 
00:55	67.3	67.3	67.3	78	60.2	0	0	---	0.00	29.882 
01:00	67.1	67.1	67.1	79	60.4	0	0	---	0.00	29.888 
01:05	67.1	67.1	67.1	79	60.4	0	1	248	0.00	29.888 
01:10	67.1	67.1	67.1	79	60.4	0	0	---	0.00	29.888 
01:15	67.1	67.1	67.1	79	60.4	0	0	---	0.00	29.886 
01:20	66.8	66.8	66.8	80	60.4	0	0	---	0.00	29.886 
01:25	66.6	66.6	66.6	80	60.2	0	0	---	0.00	29.886 
01:30	66.3	66.3	66.3	81	60.3	0	0	---	0.00	29.887 
01:35	66.3	66.3	66.3	81	60.3	0	0	---	0.00	29.887 
01:40	66.1	66.1	66.1	82	60.4	0	0	---	0.00	29.887 
01:45	66.0	66.0	66.0	82	60.3	0	0	---	0.00	29.886 
01:50	65.8	65.8	65.8	82	60.1	0	0	---	0.00	29.886 
01:55	65.8	65.8	65.8	82	60.1	0	0	---	0.00	29.886 
02:00	65.6	65.6	65.6	83	60.3	0	0	---	0.00	29.887 
02:05	65.6	65.6	65.6	83	60.3	0	1	248	0.00	29.887 
02:10	65.5	65.5	65.5	83	60.2	0	0	---	0.00	29.887 
02:15	65.5	65.5	65.5	83	60.2	0	1	248	0.00	29.887 
02:20	65.3	65.3	65.3	83	60.0	0	0	---	0.00	29.887 
02:25	65.2	65.2	65.2	83	59.9	0	0	---	0.00	29.887 
02:30	65.2	65.2	65.2	83	59.9	0	1	248	0.00	29.890 
02:35	65.0	65.0	65.0	83	59.7	0	0	---	0.00	29.890 
02:40	64.8	64.8	64.8	83	59.5	0	0	---	0.00	29.890 
02:45	64.7	64.7	64.7	83	59.4	0	0	---	0.00	29.892 
02:50	64.3	64.3	64.3	83	59.0	0	0	---	0.00	29.892 
02:55	64.2	64.2	64.2	83	58.9	0	0	---	0.00	29.892 
03:00	64.0	64.0	64.0	84	59.1	0	0	---	0.00	29.892 
03:05	63.9	63.9	63.9	84	59.0	0	0	---	0.00	29.892 
03:10	63.5	63.5	63.5	84	58.6	0	0	---	0.00	29.892 
03:15	63.5	63.5	63.5	84	58.6	0	0	---	0.00	29.889 
03:20	63.4	63.4	63.4	84	58.5	0	0	---	0.00	29.889 
03:25	63.1	63.1	63.1	84	58.2	0	0	---	0.00	29.889 
03:30	62.9	62.9	62.9	84	58.0	0	0	---	0.00	29.888 
03:35	62.9	62.9	62.9	84	58.0	0	0	---	0.00	29.888 
03:40	62.9	62.9	62.9	84	58.0	0	0	---	0.00	29.888 
03:45	62.9	62.9	62.9	84	58.0	0	0	---	0.00	29.888 
03:50	62.7	62.7	62.7	83	57.5	0	0	---	0.00	29.888 
03:55	62.7	62.7	62.7	83	57.5	0	0	---	0.00	29.888 
04:00	62.6	62.6	62.6	83	57.4	0	0	---	0.00	29.889 
04:05	62.6	62.6	62.6	83	57.4	0	0	---	0.00	29.889 
04:10	62.4	62.4	62.4	82	56.8	0	0	---	0.00	29.889 
04:15	62.4	62.4	62.4	83	57.2	0	0	---	0.00	29.890 
04:20	62.4	62.4	62.4	82	56.8	0	0	---	0.00	29.890 
04:25	62.3	62.3	62.3	82	56.7	0	0	---	0.00	29.890 
04:30	62.1	62.1	62.1	82	56.5	0	0	---	0.00	29.892 
04:35	62.0	62.0	62.0	82	56.4	0	0	---	0.00	29.892 
04:40	61.8	61.8	61.8	82	56.2	0	0	---	0.00	29.892 
04:45	61.5	61.5	61.5	82	55.9	0	0	---	0.00	29.891 
04:50	61.2	61.2	61.2	83	56.0	0	0	---	0.00	29.891 
04:55	61.0	61.0	61.0	83	55.8	0	0	---	0.00	29.891 
05:00	60.7	60.7	60.7	84	55.8	0	0	---	0.00	29.897 
05:05	60.4	60.4	60.4	84	55.5	0	0	---	0.00	29.897 
05:10	60.1	60.1	60.1	85	55.6	0	0	---	0.00	29.897 
05:15	59.9	59.9	59.9	85	55.4	0	0	---	0.00	29.900 
05:20	59.8	59.8	59.8	85	55.3	0	0	---	0.00	29.900 
05:25	59.6	59.6	59.6	85	55.1	0	0	---	0.00	29.900 
05:30	59.3	59.3	59.3	86	55.1	0	0	---	0.00	29.905 
05:35	59.2	59.2	59.2	86	55.0	0	0	---	0.00	29.905 
05:40	59.0	59.0	59.0	87	55.1	0	0	---	0.00	29.905 
05:45	59.0	59.0	59.0	88	55.4	0	0	---	0.00	29.909 
05:50	59.0	59.0	59.0	88	55.4	0	0	---	0.00	29.909 
05:55	59.0	59.0	59.0	87	55.1	0	0	---	0.00	29.909 
06:00	59.0	59.0	59.0	87	55.1	0	0	---	0.00	29.919 
06:05	59.0	59.0	59.0	87	55.1	0	0	---	0.00	29.919 
06:10	59.0	59.0	59.0	87	55.1	0	0	---	0.00	29.919 
06:15	59.0	59.0	59.0	86	54.8	0	0	---	0.00	29.928 
06:20	59.2	59.2	59.2	86	55.0	0	0	---	0.00	29.928 
06:25	59.2	59.2	59.2	86	55.0	0	0	---	0.00	29.928 
06:30	59.3	59.3	59.3	85	54.8	0	0	---	0.00	29.931 
06:35	59.5	59.5	59.5	85	55.0	0	0	---	0.00	29.931 
06:40	59.5	59.5	59.5	84	54.7	0	0	---	0.00	29.931 
06:45	59.6	59.6	59.6	84	54.8	0	0	---	0.00	29.935 
06:50	59.6	59.6	59.6	84	54.8	0	0	---	0.00	29.935 
06:55	59.8	59.8	59.8	84	55.0	0	0	---	0.00	29.935 
07:00	59.9	59.9	59.9	84	55.0	0	0	---	0.00	29.934 
07:05	60.1	60.1	60.1	83	54.9	0	0	---	0.00	29.934 
07:10	60.4	60.4	60.4	83	55.2	0	0	---	0.00	29.934 
07:15	60.5	60.5	60.5	82	55.0	0	0	---	0.00	29.942 
07:20	61.0	61.0	61.0	81	55.1	0	0	---	0.00	29.942 
07:25	61.3	61.3	61.3	81	55.4	0	1	248	0.00	29.942 
07:30	61.8	61.8	61.8	80	55.6	0	0	---	0.00	29.944 
07:35	62.1	62.1	62.1	79	55.5	0	1	248	0.00	29.944 
07:40	62.6	62.6	62.6	78	55.6	0	1	248	0.00	29.944 
07:45	63.1	63.1	63.1	76	55.4	0	1	248	0.00	29.955 
07:50	63.5	63.5	63.5	76	55.8	0	1	248	0.00	29.955 
07:55	64.0	64.0	64.0	73	55.2	0	2	248	0.00	29.955 
08:00	64.3	64.3	64.3	72	55.1	0	1	292	0.00	29.953 
08:05	64.7	64.7	64.7	71	55.1	1	2	292	0.00	29.953 
08:10	65.2	65.2	65.2	71	55.6	0	1	292	0.00	29.953 
08:15	65.6	65.6	65.6	70	55.5	0	1	292	0.00	29.953 
08:20	66.1	66.1	66.1	68	55.2	0	2	292	0.00	29.953 
08:25	66.4	66.4	66.4	67	55.1	0	2	270	0.00	29.953 
08:30	66.9	66.9	66.9	68	56.0	0	2	270	0.00	29.952 
08:35	67.4	67.4	67.4	66	55.6	0	2	270	0.00	29.952 
08:40	67.8	67.8	67.8	65	55.6	0	2	270	0.00	29.952 
08:45	67.9	67.9	67.9	62	54.4	1	2	292	0.00	29.953 
08:50	68.3	68.3	68.3	64	55.6	0	1	292	0.00	29.953 
08:55	68.8	68.8	68.8	65	56.5	0	3	292	0.00	29.953 
09:00	68.6	68.6	68.6	61	54.6	1	3	292	0.00	29.952 
09:05	68.8	68.8	68.8	61	54.8	1	2	292	0.00	29.952 
09:10	69.1	69.1	69.1	61	55.1	0	1	292	0.00	29.952 
09:15	69.4	69.4	69.4	61	55.4	0	1	225	0.00	29.954 
09:20	69.9	69.9	69.9	60	55.4	0	1	22	0.00	29.954 
09:25	70.1	70.1	70.1	58	54.6	0	2	248	0.00	29.954 
09:30	70.4	70.4	70.4	60	55.8	0	3	248	0.00	29.955 
09:35	70.8	70.8	70.8	58	55.3	0	2	225	0.00	29.955 
09:40	71.1	71.1	71.1	59	56.0	1	2	0	0.00	29.955 
09:45	71.6	71.6	71.6	58	56.0	0	1	0	0.00	29.950 
09:50	71.6	71.6	71.6	59	56.5	0	2	248	0.00	29.950 
09:55	71.8	71.8	71.8	59	56.7	0	2	248	0.00	29.950 
10:00	71.8	71.8	71.8	58	56.2	1	2	248	0.00	29.959 
10:05	72.0	72.0	72.0	57	55.9	0	2	248	0.00	29.959 
10:10	72.3	72.3	72.3	56	55.7	0	1	225	0.00	29.959 
10:15	72.7	72.7	72.7	54	55.1	1	3	45	0.00	29.954 
10:20	72.5	72.5	72.5	55	55.4	0	2	338	0.00	29.954 
10:25	72.5	72.5	72.5	54	54.9	0	2	338	0.00	29.954 
10:30	72.5	72.5	72.5	53	54.4	1	2	338	0.00	29.953 
10:35	72.5	72.5	72.5	56	55.9	0	2	338	0.00	29.953 
10:40	73.0	73.0	73.0	56	56.4	0	2	338	0.00	29.953 
10:45	73.3	73.3	73.3	55	56.1	0	2	338	0.00	29.964 
10:50	73.3	73.3	73.3	55	56.1	0	2	338	0.00	29.964 
10:55	73.3	73.3	73.3	56	56.6	0	2	338	0.00	29.964 
11:00	73.5	73.5	73.5	57	57.3	1	2	0	0.00	29.968 
11:05	73.5	73.5	73.5	54	55.8	1	3	0	0.00	29.968 
11:10	73.5	73.5	73.5	52	54.8	1	2	315	0.00	29.968 
11:15	73.9	73.9	73.9	55	56.7	1	4	315	0.00	29.971 
11:20	73.7	73.7	73.7	53	55.5	2	4	292	0.00	29.971 
11:25	73.7	73.7	73.7	55	56.5	1	3	315	0.00	29.971 
11:30	73.9	73.9	73.9	55	56.7	1	3	315	0.00	29.971 
11:35	73.9	73.9	73.9	55	56.7	0	2	292	0.00	29.971 
11:40	74.4	74.4	74.4	58	58.6	1	3	292	0.00	29.971 
11:45	74.7	74.7	74.7	55	57.4	1	4	315	0.00	29.970 
11:50	74.9	74.9	74.9	54	57.1	1	3	315	0.00	29.970 
11:55	74.9	74.9	74.9	53	56.6	1	4	315	0.00	29.970 
12:00	75.3	75.3	77.7	56	58.5	1	3	315	0.00	29.968 
12:05	75.3	75.3	77.7	53	57.0	1	4	315	0.00	29.968 
12:10	75.1	75.1	77.7	51	55.7	2	4	315	0.00	29.968 
12:15	74.9	74.9	74.9	52	56.1	2	4	292	0.00	29.979 
12:20	75.3	75.3	77.7	54	57.5	1	4	315	0.00	29.979 
12:25	75.8	75.8	78.0	54	57.9	1	2	338	0.00	29.979 
12:30	76.0	76.0	78.1	50	56.0	2	4	270	0.00	29.984 
12:35	75.4	75.4	77.8	53	57.1	1	3	338	0.00	29.984 
12:40	75.8	75.8	78.0	53	57.4	1	3	315	0.00	29.984 
12:45	76.1	76.1	78.1	52	57.2	2	4	270	0.00	29.984 
12:50	76.0	76.0	78.1	50	56.0	1	3	0	0.00	29.984 
12:55	76.0	76.0	78.1	51	56.5	2	4	270	0.00	29.984 
13:00	76.0	76.0	78.1	53	57.6	0	2	315	0.00	29.980 
13:05	76.3	76.3	78.2	51	56.8	1	3	292	0.00	29.980 
13:10	76.5	76.5	78.3	50	56.5	1	2	315	0.00	29.980 
13:15	76.7	76.7	78.4	49	56.1	1	3	270	0.00	29.977 
13:20	76.7	76.7	78.4	51	57.2	1	4	292	0.00	29.977 
13:25	76.5	76.5	78.3	48	55.3	1	3	292	0.00	29.977 
13:30	76.8	76.8	78.5	52	57.8	1	3	292	0.00	29.983 
13:35	77.0	77.0	78.6	51	57.5	1	4	292	0.00	29.983 
13:40	77.0	77.0	78.7	53	58.5	1	2	292	0.00	29.983 
13:45	77.2	77.2	78.7	51	57.6	1	3	292	0.00	29.984 
13:50	77.4	77.4	78.8	48	56.1	2	5	270	0.00	29.984 
13:55	77.2	77.2	78.7	48	56.0	1	3	315	0.00	29.984 
14:00	77.2	77.2	78.7	48	56.0	2	4	315	0.00	29.987 
14:05	77.4	77.4	78.8	50	57.3	1	3	315	0.00	29.987 
14:10	77.6	77.6	78.9	49	56.9	1	4	292	0.00	29.987 
14:15	77.7	77.7	78.9	48	56.4	2	4	315	0.00	29.985 
14:20	77.7	77.7	78.9	48	56.4	1	3	315	0.00	29.985 
14:25	77.9	77.9	79.1	48	56.6	1	3	338	0.00	29.985 
14:30	78.1	78.1	79.2	47	56.2	2	7	338	0.00	29.985 
14:35	77.7	77.7	78.9	47	55.8	2	5	270	0.00	29.985 
14:40	77.9	77.9	79.1	49	57.2	2	4	225	0.00	29.985 
14:45	78.3	78.3	79.2	46	55.8	0	2	225	0.00	29.983 
14:50	78.6	78.6	79.7	50	58.4	0	3	225	0.00	29.983 
14:55	78.8	78.8	79.6	46	56.2	1	4	270	0.00	29.983 
15:00	79.0	79.0	79.6	45	55.8	2	5	270	0.00	29.980 
15:05	79.0	79.0	79.8	47	57.0	1	3	270	0.00	29.980 
15:10	79.4	79.4	80.1	47	57.4	0	5	292	0.00	29.980 
15:15	79.4	79.4	80.3	50	59.1	1	3	270	0.00	29.979 
15:20	79.4	79.4	80.0	46	56.8	1	2	292	0.00	29.979 
15:25	79.6	79.6	80.2	47	57.6	1	3	292	0.00	29.979 
15:30	79.8	79.8	80.3	46	57.2	0	2	292	0.00	29.975 
15:35	80.1	80.1	80.4	45	56.8	0	2	292	0.00	29.975 
15:40	80.7	80.7	80.9	45	57.4	0	2	292	0.00	29.975 
15:45	80.3	80.3	80.4	43	55.7	2	4	292	0.00	29.971 
15:50	80.1	80.1	80.3	44	56.2	1	3	292	0.00	29.971 
15:55	79.6	79.6	80.0	44	55.7	1	3	315	0.00	29.971 
16:00	79.8	79.8	80.2	45	56.5	0	1	315	0.00	29.971 
16:05	79.8	79.8	80.4	47	57.8	0	2	315	0.00	29.971 
16:10	79.9	79.9	80.4	46	57.2	1	3	315	0.00	29.971 
16:15	79.9	79.9	80.3	45	56.6	1	3	292	0.00	29.980 
16:20	80.3	80.3	80.7	46	57.6	1	4	315	0.00	29.980 
16:25	80.1	80.1	80.5	46	57.4	1	5	270	0.00	29.980 
16:30	80.1	80.1	80.3	44	56.2	0	3	292	0.00	29.973 
16:35	80.5	80.5	80.6	43	55.9	0	2	292	0.00	29.973 
16:40	80.7	80.7	80.8	44	56.7	0	1	292	0.00	29.973 
16:45	80.7	80.7	80.7	43	56.1	0	2	292	0.00	29.970 
16:50	80.5	80.5	80.4	41	54.6	1	3	315	0.00	29.970 
16:55	80.7	80.7	81.0	46	58.0	0	2	315	0.00	29.970 
17:00	81.1	81.1	80.9	42	55.8	1	2	292	0.00	29.969 
17:05	81.1	81.1	81.0	43	56.5	0	3	292	0.00	29.969 
17:10	80.9	80.9	80.6	40	54.3	0	4	292	0.00	29.969 
17:15	81.1	81.1	80.9	42	55.8	1	7	270	0.00	29.970 
17:20	80.9	80.9	80.4	38	52.9	0	3	292	0.00	29.970 
17:25	80.9	80.9	80.4	38	52.9	0	2	292	0.00	29.970 
17:30	81.1	81.1	80.6	39	53.8	1	2	292	0.00	29.965 
17:35	81.1	81.1	81.0	43	56.5	1	3	112	0.00	29.965 
17:40	81.2	81.2	80.9	41	55.2	0	2	112	0.00	29.965 
17:45	81.4	81.4	80.8	38	53.3	1	2	270	0.00	29.963 
17:50	81.4	81.4	81.0	40	54.7	0	1	202	0.00	29.963 
17:55	81.2	81.2	80.8	40	54.6	0	2	202	0.00	29.963 
18:00	80.7	80.7	80.5	41	54.8	0	1	202	0.00	29.959 
18:05	80.3	80.3	80.1	39	53.1	0	1	202	0.00	29.959 
18:10	80.1	80.1	80.2	42	54.9	0	2	202	0.00	29.959 
18:15	79.8	79.8	80.0	42	54.6	0	0	---	0.00	29.957 
18:20	79.6	79.6	79.9	43	55.1	0	2	68	0.00	29.957 
18:25	79.6	79.6	80.0	45	56.4	0	1	68	0.00	29.957 
18:30	79.2	79.2	79.5	42	54.1	0	1	68	0.00	29.961 
18:35	79.0	79.0	79.4	42	53.9	0	2	45	0.00	29.961 
18:40	78.6	78.6	79.2	43	54.2	0	1	45	0.00	29.961 
18:45	78.5	78.5	79.2	43	54.1	0	0	---	0.00	29.963 
18:50	78.6	78.6	79.3	44	54.8	0	1	45	0.00	29.963 
18:55	78.6	78.6	79.3	44	54.8	0	1	45	0.00	29.963 
19:00	78.8	78.8	79.4	44	55.0	0	0	---	0.00	29.967 
19:05	78.8	78.8	79.5	45	55.6	0	1	45	0.00	29.967 
19:10	78.6	78.6	79.4	45	55.5	0	1	45	0.00	29.967 
19:15	78.5	78.5	79.4	46	56.0	0	1	45	0.00	29.968 
19:20	78.3	78.3	79.3	47	56.4	0	1	45	0.00	29.968 
19:25	77.9	77.9	79.0	47	56.0	0	1	45	0.00	29.968 
19:30	77.6	77.6	78.8	47	55.8	0	0	---	0.00	29.970 
19:35	77.4	77.4	78.7	47	55.6	0	0	---	0.00	29.970 
19:40	77.2	77.2	78.6	47	55.4	0	0	---	0.00	29.970 
19:45	77.2	77.2	78.6	47	55.4	0	0	---	0.00	29.971 
19:50	77.0	77.0	78.6	49	56.4	0	0	---	0.00	29.971 
19:55	77.0	77.0	78.6	50	56.9	0	0	---	0.00	29.971 
20:00	76.8	76.8	78.5	51	57.3	0	0	---	0.00	29.969 
20:05	76.7	76.7	78.4	51	57.2	0	0	---	0.00	29.969 
20:10	76.5	76.5	78.4	52	57.5	0	1	45	0.00	29.969 
20:15	76.5	76.5	78.4	53	58.1	0	0	---	0.00	29.964 
20:20	76.3	76.3	78.2	52	57.4	0	0	---	0.00	29.964 
20:25	76.1	76.1	78.1	52	57.2	0	0	---	0.00	29.964 
20:30	76.1	76.1	78.1	53	57.7	0	0	---	0.00	29.963 
20:35	76.0	76.0	78.1	53	57.6	0	0	---	0.00	29.963 
20:40	75.8	75.8	78.0	54	57.9	0	0	---	0.00	29.963 
20:45	75.6	75.6	77.8	55	58.3	0	0	---	0.00	29.957 
20:50	75.3	75.3	77.7	54	57.5	0	0	---	0.00	29.957 
20:55	74.9	74.9	74.9	55	57.6	0	0	---	0.00	29.957 
21:00	74.4	74.4	74.4	55	57.2	0	0	---	0.00	29.964 
21:05	74.0	74.0	74.0	57	57.8	0	0	---	0.00	29.964 
21:10	73.7	73.7	73.7	58	58.0	0	0	---	0.00	29.964 
21:15	73.2	73.2	73.2	60	58.5	0	0	---	0.00	29.969 
21:20	72.8	72.8	72.8	61	58.6	0	0	---	0.00	29.969 
21:25	72.5	72.5	72.5	62	58.7	0	0	---	0.00	29.969 
21:30	72.0	72.0	72.0	63	58.7	0	0	---	0.00	29.970 
21:35	71.6	71.6	71.6	64	58.8	0	0	---	0.00	29.970 
21:40	71.1	71.1	71.1	65	58.7	0	0	---	0.00	29.970 
21:45	70.9	70.9	70.9	66	59.0	0	0	---	0.00	29.970 
21:50	70.6	70.6	70.6	67	59.1	0	0	---	0.00	29.970 
21:55	70.4	70.4	70.4	68	59.3	0	0	---	0.00	29.970 
22:00	70.1	70.1	70.1	69	59.4	0	0	---	0.00	29.969 
22:05	69.9	69.9	69.9	69	59.3	0	0	---	0.00	29.969 
22:10	69.9	69.9	69.9	70	59.7	0	0	---	0.00	29.969 
22:15	69.8	69.8	69.8	71	60.0	0	0	---	0.00	29.968 
22:20	69.6	69.6	69.6	70	59.4	0	0	---	0.00	29.968 
22:25	69.4	69.4	69.4	72	60.0	0	0	---	0.00	29.968 
22:30	69.4	69.4	69.4	71	59.6	0	0	---	0.00	29.980 
22:35	69.3	69.3	69.3	72	59.9	0	0	---	0.00	29.980 
22:40	69.3	69.3	69.3	73	60.3	0	0	---	0.00	29.980 
22:45	69.3	69.3	69.3	74	60.6	0	0	---	0.00	29.984 
22:50	69.3	69.3	69.3	75	61.0	0	0	---	0.00	29.984 
22:55	69.1	69.1	69.1	75	60.8	0	0	---	0.00	29.984 
23:00	69.1	69.1	69.1	76	61.2	0	0	---	0.00	29.974 
23:05	68.8	68.8	68.8	74	60.2	0	0	---	0.00	29.974 
23:10	68.4	68.4	68.4	73	59.4	0	0	---	0.00	29.974 
23:15	68.3	68.3	68.3	74	59.7	0	0	---	0.00	29.979 
23:20	67.9	67.9	67.9	74	59.3	0	0	---	0.00	29.979 
23:25	67.8	67.8	67.8	74	59.2	0	0	---	0.00	29.979 
23:30	67.4	67.4	67.4	75	59.2	0	0	---	0.00	29.982 
23:35	67.3	67.3	67.3	75	59.1	0	0	---	0.00	29.982 
23:40	67.1	67.1	67.1	76	59.3	0	0	---	0.00	29.982 
23:45	66.9	66.9	66.9	77	59.4	0	0	---	0.00	29.981 
23:50	66.8	66.8	66.8	77	59.3	0	0	---	0.00	29.981 
23:55	66.4	66.4	66.4	78	59.3	0	0	---	0.00	29.981 

CoCoRaHS
IN-AL-39
A2 Web Hosting
Creative Commons License
GoDaddy
search engine by freefind advanced

loaded 2018-11-12 14:45:03 • last modified 2010-11-18 10:43:29
Privacy PolicyDisclaimer
• wx.awcolley.com is powered by PmWiki v.2002016 •
• all content (unless otherwise noted) © 2018 A W Colley